sensor_id;sensor_type;location;lat;lon;timestamp;pressure;altitude;pressure_sealevel;temperature;humidity
77041;BME280;65974;42.664;23.264;2023-04-12T00:00:58;93530.81;;;7.94;67.42
77041;BME280;65974;42.664;23.264;2023-04-12T00:03:25;93521.66;;;8.26;66.66
77041;BME280;65974;42.664;23.264;2023-04-12T00:05:51;93520.19;;;8.11;66.38
77041;BME280;65974;42.664;23.264;2023-04-12T00:08:19;93526.31;;;7.83;67.73
77041;BME280;65974;42.664;23.264;2023-04-12T00:10:57;93526.22;;;8.19;67.00
77041;BME280;65974;42.664;23.264;2023-04-12T00:13:23;93523.16;;;8.20;66.45
77041;BME280;65974;42.664;23.264;2023-04-12T00:15:48;93510.03;;;7.78;67.87
77041;BME280;65974;42.664;23.264;2023-04-12T00:18:13;93520.19;;;8.04;67.62
77041;BME280;65974;42.664;23.264;2023-04-12T00:20:39;93513.72;;;8.30;66.33
77041;BME280;65974;42.664;23.264;2023-04-12T00:23:05;93502.06;;;7.85;67.90
77041;BME280;65974;42.664;23.264;2023-04-12T00:25:30;93505.09;;;7.94;67.69
77041;BME280;65974;42.664;23.264;2023-04-12T00:27:56;93501.53;;;8.39;66.00
77041;BME280;65974;42.664;23.264;2023-04-12T00:30:21;93501.28;;;7.88;67.46
77041;BME280;65974;42.664;23.264;2023-04-12T00:32:47;93504.69;;;7.81;67.71
77041;BME280;65974;42.664;23.264;2023-04-12T00:35:13;93511.03;;;8.33;66.53
77041;BME280;65974;42.664;23.264;2023-04-12T00:37:38;93496.28;;;8.18;66.38
77041;BME280;65974;42.664;23.264;2023-04-12T00:40:04;93498.63;;;7.88;67.67
77041;BME280;65974;42.664;23.264;2023-04-12T00:42:32;93500.44;;;8.30;66.35
77041;BME280;65974;42.664;23.264;2023-04-12T00:44:58;93503.06;;;8.37;65.44
77041;BME280;65974;42.664;23.264;2023-04-12T00:47:23;93497.88;;;7.98;67.20
77041;BME280;65974;42.664;23.264;2023-04-12T00:49:49;93498.19;;;8.07;67.35
77041;BME280;65974;42.664;23.264;2023-04-12T00:52:15;93495.06;;;8.47;65.37
77041;BME280;65974;42.664;23.264;2023-04-12T00:54:42;93494.44;;;8.01;67.06
77041;BME280;65974;42.664;23.264;2023-04-12T00:57:08;93489.53;;;7.93;67.78
77041;BME280;65974;42.664;23.264;2023-04-12T00:59:34;93485.25;;;8.37;66.11
77041;BME280;65974;42.664;23.264;2023-04-12T01:02:00;93488.00;;;8.02;66.96
77041;BME280;65974;42.664;23.264;2023-04-12T01:04:26;93489.56;;;7.86;67.53
77041;BME280;65974;42.664;23.264;2023-04-12T01:10:18;93495.16;;;8.12;66.33
77041;BME280;65974;42.664;23.264;2023-04-12T01:15:52;93492.03;;;8.42;65.84
77041;BME280;65974;42.664;23.264;2023-04-12T01:18:20;93482.34;;;8.00;66.74
77041;BME280;65974;42.664;23.264;2023-04-12T01:20:59;93472.13;;;7.88;67.35
77041;BME280;65974;42.664;23.264;2023-04-12T01:28:52;93483.88;;;7.80;67.97
77041;BME280;65974;42.664;23.264;2023-04-12T01:31:18;93481.09;;;8.33;66.05
77041;BME280;65974;42.664;23.264;2023-04-12T01:33:45;93483.06;;;8.08;66.40
77041;BME280;65974;42.664;23.264;2023-04-12T01:36:16;93484.28;;;7.86;67.65
77041;BME280;65974;42.664;23.264;2023-04-12T01:38:42;93480.41;;;8.11;67.31
77041;BME280;65974;42.664;23.264;2023-04-12T01:41:09;93478.84;;;8.21;66.00
77041;BME280;65974;42.664;23.264;2023-04-12T01:43:45;93480.13;;;7.81;67.51
77041;BME280;65974;42.664;23.264;2023-04-12T01:46:14;93485.72;;;8.08;66.98
77041;BME280;65974;42.664;23.264;2023-04-12T01:48:47;93477.34;;;8.27;65.88
77041;BME280;65974;42.664;23.264;2023-04-12T01:51:19;93482.41;;;7.79;67.34
77041;BME280;65974;42.664;23.264;2023-04-12T01:54:06;93480.06;;;7.95;67.91
77041;BME280;65974;42.664;23.264;2023-04-12T01:56:38;93478.44;;;8.33;65.34
77041;BME280;65974;42.664;23.264;2023-04-12T01:59:06;93472.53;;;7.79;67.07
77041;BME280;65974;42.664;23.264;2023-04-12T02:01:32;93480.06;;;7.95;67.98
77041;BME280;65974;42.664;23.264;2023-04-12T02:03:58;93473.44;;;8.45;65.27
77041;BME280;65974;42.664;23.264;2023-04-12T02:06:26;93479.38;;;7.77;67.64
77041;BME280;65974;42.664;23.264;2023-04-12T02:09:00;93472.97;;;7.64;68.42
77041;BME280;65974;42.664;23.264;2023-04-12T02:11:26;93476.22;;;8.14;66.24
77041;BME280;65974;42.664;23.264;2023-04-12T02:13:52;93464.16;;;8.02;66.26
77041;BME280;65974;42.664;23.264;2023-04-12T02:16:17;93463.06;;;7.78;67.39
77041;BME280;65974;42.664;23.264;2023-04-12T02:18:45;93461.03;;;8.18;66.39
77041;BME280;65974;42.664;23.264;2023-04-12T02:21:10;93467.13;;;8.15;65.78
77041;BME280;65974;42.664;23.264;2023-04-12T02:23:36;93465.38;;;7.73;67.73
77041;BME280;65974;42.664;23.264;2023-04-12T02:26:01;93471.00;;;7.96;67.21
77041;BME280;65974;42.664;23.264;2023-04-12T02:28:27;93464.06;;;8.23;65.74
77041;BME280;65974;42.664;23.264;2023-04-12T02:30:53;93475.56;;;7.78;67.41
77041;BME280;65974;42.664;23.264;2023-04-12T02:33:18;93469.13;;;7.82;68.08
77041;BME280;65974;42.664;23.264;2023-04-12T02:35:50;93467.84;;;8.29;66.32
77041;BME280;65974;42.664;23.264;2023-04-12T02:38:16;93474.81;;;7.81;67.61
77041;BME280;65974;42.664;23.264;2023-04-12T02:40:41;93466.50;;;7.68;68.50
77041;BME280;65974;42.664;23.264;2023-04-12T02:43:07;93464.81;;;8.20;66.72
77041;BME280;65974;42.664;23.264;2023-04-12T02:45:33;93462.97;;;8.10;66.18
77041;BME280;65974;42.664;23.264;2023-04-12T02:47:58;93449.81;;;7.82;67.31
77041;BME280;65974;42.664;23.264;2023-04-12T02:50:24;93451.25;;;8.11;67.05
77041;BME280;65974;42.664;23.264;2023-04-12T02:52:49;93451.19;;;8.18;65.62
77041;BME280;65974;42.664;23.264;2023-04-12T02:55:15;93461.94;;;7.83;67.34
77041;BME280;65974;42.664;23.264;2023-04-12T02:57:43;93453.56;;;7.88;68.06
77041;BME280;65974;42.664;23.264;2023-04-12T03:00:09;93455.75;;;8.21;65.94
77041;BME280;65974;42.664;23.264;2023-04-12T03:02:39;93456.66;;;7.72;67.28
77041;BME280;65974;42.664;23.264;2023-04-12T03:05:05;93448.28;;;7.88;67.60
77041;BME280;65974;42.664;23.264;2023-04-12T03:07:32;93443.97;;;8.22;66.34
77041;BME280;65974;42.664;23.264;2023-04-12T03:09:57;93442.56;;;8.00;67.43
77041;BME280;65974;42.664;23.264;2023-04-12T03:12:23;93437.72;;;7.74;68.76
77041;BME280;65974;42.664;23.264;2023-04-12T03:14:48;93430.72;;;8.22;68.40
77041;BME280;65974;42.664;23.264;2023-04-12T03:17:14;93437.53;;;8.27;67.66
77041;BME280;65974;42.664;23.264;2023-04-12T03:19:40;93438.44;;;7.92;69.23
77041;BME280;65974;42.664;23.264;2023-04-12T03:22:05;93450.44;;;8.28;67.97
77041;BME280;65974;42.664;23.264;2023-04-12T03:24:31;93451.84;;;8.47;66.61
77041;BME280;65974;42.664;23.264;2023-04-12T03:27:02;93459.97;;;8.05;68.61
77041;BME280;65974;42.664;23.264;2023-04-12T03:29:28;93459.19;;;8.08;68.90
77041;BME280;65974;42.664;23.264;2023-04-12T03:31:55;93458.66;;;8.51;67.03
77041;BME280;65974;42.664;23.264;2023-04-12T03:34:23;93461.44;;;8.13;67.59
77041;BME280;65974;42.664;23.264;2023-04-12T03:36:49;93467.16;;;8.11;67.85
77041;BME280;65974;42.664;23.264;2023-04-12T03:39:15;93458.97;;;8.60;66.33
77041;BME280;65974;42.664;23.264;2023-04-12T03:41:41;93462.13;;;8.38;66.06
77041;BME280;65974;42.664;23.264;2023-04-12T03:44:06;93472.81;;;8.17;66.81
77041;BME280;65974;42.664;23.264;2023-04-12T03:46:32;93461.28;;;8.55;66.12
77041;BME280;65974;42.664;23.264;2023-04-12T03:48:58;93478.03;;;8.45;65.51
77041;BME280;65974;42.664;23.264;2023-04-12T03:51:23;93478.53;;;8.05;67.89
77041;BME280;65974;42.664;23.264;2023-04-12T03:53:51;93476.97;;;8.28;67.21
77041;BME280;65974;42.664;23.264;2023-04-12T03:56:17;93479.16;;;8.47;66.41
77041;BME280;65974;42.664;23.264;2023-04-12T03:58:44;93475.53;;;7.92;68.50
77041;BME280;65974;42.664;23.264;2023-04-12T04:01:09;93485.38;;;7.95;69.21
77041;BME280;65974;42.664;23.264;2023-04-12T04:03:38;93470.84;;;8.38;67.13
77041;BME280;65974;42.664;23.264;2023-04-12T04:06:05;93474.00;;;7.95;68.10
77041;BME280;65974;42.664;23.264;2023-04-12T04:08:31;93476.69;;;7.88;68.95
77041;BME280;65974;42.664;23.264;2023-04-12T04:10:57;93484.44;;;8.44;66.91
77041;BME280;65974;42.664;23.264;2023-04-12T04:13:23;93488.31;;;8.29;67.05
77041;BME280;65974;42.664;23.264;2023-04-12T04:15:53;93495.25;;;7.88;68.71
77041;BME280;65974;42.664;23.264;2023-04-12T04:18:18;93506.50;;;8.16;67.83
77041;BME280;65974;42.664;23.264;2023-04-12T04:20:44;93509.88;;;8.38;66.62
77041;BME280;65974;42.664;23.264;2023-04-12T04:23:09;93518.69;;;7.93;67.89
77041;BME280;65974;42.664;23.264;2023-04-12T04:25:35;93524.34;;;8.05;68.63
77041;BME280;65974;42.664;23.264;2023-04-12T04:28:06;93531.47;;;8.40;66.47
77041;BME280;65974;42.664;23.264;2023-04-12T04:30:32;93525.56;;;7.72;68.95
77041;BME280;65974;42.664;23.264;2023-04-12T04:32:58;93526.28;;;7.94;68.99
77041;BME280;65974;42.664;23.264;2023-04-12T04:35:24;93524.63;;;8.49;66.76
77041;BME280;65974;42.664;23.264;2023-04-12T04:37:50;93527.41;;;7.93;68.24
77041;BME280;65974;42.664;23.264;2023-04-12T04:40:17;93529.72;;;7.80;68.60
77041;BME280;65974;42.664;23.264;2023-04-12T04:42:45;93536.44;;;8.31;67.01
77041;BME280;65974;42.664;23.264;2023-04-12T04:45:19;93534.19;;;8.15;66.91
77041;BME280;65974;42.664;23.264;2023-04-12T04:47:46;93543.34;;;7.79;68.22
77041;BME280;65974;42.664;23.264;2023-04-12T04:50:11;93537.22;;;8.17;67.75
77041;BME280;65974;42.664;23.264;2023-04-12T04:52:37;93549.72;;;8.27;65.80
77041;BME280;65974;42.664;23.264;2023-04-12T04:55:04;93535.00;;;7.84;67.15
77041;BME280;65974;42.664;23.264;2023-04-12T04:57:29;93545.94;;;8.07;66.67
77041;BME280;65974;42.664;23.264;2023-04-12T04:59:55;93542.06;;;8.43;65.09
77041;BME280;65974;42.664;23.264;2023-04-12T05:02:20;93544.88;;;7.83;66.69
77041;BME280;65974;42.664;23.264;2023-04-12T05:04:46;93552.81;;;7.83;67.42
77041;BME280;65974;42.664;23.264;2023-04-12T05:07:11;93549.31;;;8.29;65.30
77041;BME280;65974;42.664;23.264;2023-04-12T05:09:38;93539.16;;;7.89;66.10
77041;BME280;65974;42.664;23.264;2023-04-12T05:12:04;93555.84;;;7.78;65.87
77041;BME280;65974;42.664;23.264;2023-04-12T05:14:29;93558.41;;;8.21;65.55
77041;BME280;65974;42.664;23.264;2023-04-12T05:16:54;93560.72;;;8.15;64.75
77041;BME280;65974;42.664;23.264;2023-04-12T05:19:20;93561.13;;;7.82;65.53
77041;BME280;65974;42.664;23.264;2023-04-12T05:21:46;93561.84;;;8.11;64.92
77041;BME280;65974;42.664;23.264;2023-04-12T05:24:11;93558.75;;;8.44;62.53
77041;BME280;65974;42.664;23.264;2023-04-12T05:26:37;93558.13;;;7.83;64.48
77041;BME280;65974;42.664;23.264;2023-04-12T05:29:02;93557.31;;;7.97;64.73
77041;BME280;65974;42.664;23.264;2023-04-12T05:31:27;93559.19;;;8.32;63.33
77041;BME280;65974;42.664;23.264;2023-04-12T05:33:53;93557.34;;;7.83;63.50
77041;BME280;65974;42.664;23.264;2023-04-12T05:36:19;93561.91;;;7.72;63.76
77041;BME280;65974;42.664;23.264;2023-04-12T05:38:45;93563.72;;;8.17;62.93
77041;BME280;65974;42.664;23.264;2023-04-12T05:41:10;93569.44;;;8.05;62.01
77041;BME280;65974;42.664;23.264;2023-04-12T05:43:36;93563.44;;;7.66;63.43
77041;BME280;65974;42.664;23.264;2023-04-12T05:46:02;93569.81;;;8.04;62.47
77041;BME280;65974;42.664;23.264;2023-04-12T05:48:28;93564.47;;;8.21;61.24
77041;BME280;65974;42.664;23.264;2023-04-12T05:50:53;93564.56;;;7.72;62.30
77041;BME280;65974;42.664;23.264;2023-04-12T05:53:20;93563.41;;;7.80;63.13
77041;BME280;65974;42.664;23.264;2023-04-12T05:55:45;93566.34;;;8.24;60.45
77041;BME280;65974;42.664;23.264;2023-04-12T05:58:11;93572.50;;;7.75;60.92
77041;BME280;65974;42.664;23.264;2023-04-12T06:00:38;93578.56;;;7.62;61.41
77041;BME280;65974;42.664;23.264;2023-04-12T06:03:06;93572.44;;;8.21;59.68
77041;BME280;65974;42.664;23.264;2023-04-12T06:05:32;93582.34;;;7.78;60.36
77041;BME280;65974;42.664;23.264;2023-04-12T06:07:58;93585.75;;;7.44;62.22
77041;BME280;65974;42.664;23.264;2023-04-12T06:10:24;93591.41;;;7.95;60.91
77041;BME280;65974;42.664;23.264;2023-04-12T06:12:49;93593.69;;;8.00;60.83
77041;BME280;65974;42.664;23.264;2023-04-12T06:15:15;93609.97;;;7.39;63.33
77041;BME280;65974;42.664;23.264;2023-04-12T06:17:40;93603.16;;;7.59;62.93
77041;BME280;65974;42.664;23.264;2023-04-12T06:20:06;93601.25;;;8.12;60.34
77041;BME280;65974;42.664;23.264;2023-04-12T06:22:35;93592.56;;;7.59;62.59
77041;BME280;65974;42.664;23.264;2023-04-12T06:25:01;93605.06;;;7.69;62.71
77041;BME280;65974;42.664;23.264;2023-04-12T06:27:26;93592.16;;;8.27;60.85
77041;BME280;65974;42.664;23.264;2023-04-12T06:29:52;93586.88;;;7.71;61.88
77041;BME280;65974;42.664;23.264;2023-04-12T06:32:17;93593.69;;;7.51;63.02
77041;BME280;65974;42.664;23.264;2023-04-12T06:34:43;93581.91;;;8.12;61.30
77041;BME280;65974;42.664;23.264;2023-04-12T06:37:08;93580.78;;;8.09;60.24
77041;BME280;65974;42.664;23.264;2023-04-12T06:39:34;93595.22;;;7.69;62.55
77041;BME280;65974;42.664;23.264;2023-04-12T06:41:59;93586.13;;;8.02;61.72
77041;BME280;65974;42.664;23.264;2023-04-12T06:44:25;93576.97;;;8.38;60.30
77041;BME280;65974;42.664;23.264;2023-04-12T06:46:52;93580.81;;;7.95;61.70
77041;BME280;65974;42.664;23.264;2023-04-12T06:49:17;93584.19;;;8.13;61.49
77041;BME280;65974;42.664;23.264;2023-04-12T06:51:43;93586.78;;;8.55;59.77
77041;BME280;65974;42.664;23.264;2023-04-12T06:54:09;93579.66;;;8.00;61.31
77041;BME280;65974;42.664;23.264;2023-04-12T06:56:37;93584.63;;;7.87;62.10
77041;BME280;65974;42.664;23.264;2023-04-12T06:59:04;93569.41;;;8.26;60.82
77041;BME280;65974;42.664;23.264;2023-04-12T07:01:29;93571.28;;;8.22;60.57
77041;BME280;65974;42.664;23.264;2023-04-12T07:03:55;93567.16;;;7.97;61.91
77041;BME280;65974;42.664;23.264;2023-04-12T07:06:20;93567.06;;;8.53;60.39
77041;BME280;65974;42.664;23.264;2023-04-12T07:08:45;93566.22;;;8.74;59.65
77041;BME280;65974;42.664;23.264;2023-04-12T07:11:11;93570.16;;;8.23;60.41
77041;BME280;65974;42.664;23.264;2023-04-12T07:13:36;93576.94;;;8.45;60.04
77041;BME280;65974;42.664;23.264;2023-04-12T07:16:02;93576.78;;;8.88;58.71
77041;BME280;65974;42.664;23.264;2023-04-12T07:18:28;93573.56;;;8.31;59.80
77041;BME280;65974;42.664;23.264;2023-04-12T07:20:54;93574.34;;;8.17;61.13
77041;BME280;65974;42.664;23.264;2023-04-12T07:23:20;93579.91;;;8.69;59.71
77041;BME280;65974;42.664;23.264;2023-04-12T07:25:46;93576.97;;;8.24;60.47
77041;BME280;65974;42.664;23.264;2023-04-12T07:28:11;93574.75;;;8.02;61.93
77041;BME280;65974;42.664;23.264;2023-04-12T07:30:40;93567.09;;;8.49;60.01
77041;BME280;65974;42.664;23.264;2023-04-12T07:33:05;93574.69;;;8.40;59.65
77041;BME280;65974;42.664;23.264;2023-04-12T07:35:32;93576.66;;;7.98;61.38
77041;BME280;65974;42.664;23.264;2023-04-12T07:37:58;93565.63;;;8.27;61.20
77041;BME280;65974;42.664;23.264;2023-04-12T07:40:24;93561.34;;;8.62;59.73
77041;BME280;65974;42.664;23.264;2023-04-12T07:42:49;93548.59;;;8.04;60.66
77041;BME280;65974;42.664;23.264;2023-04-12T07:45:15;93559.19;;;8.14;61.22
77041;BME280;65974;42.664;23.264;2023-04-12T07:47:41;93555.66;;;8.67;59.84
77041;BME280;65974;42.664;23.264;2023-04-12T07:50:07;93563.31;;;8.33;60.14
77041;BME280;65974;42.664;23.264;2023-04-12T07:52:33;93555.00;;;8.27;60.42
77041;BME280;65974;42.664;23.264;2023-04-12T07:54:58;93548.38;;;8.81;57.84
77041;BME280;65974;42.664;23.264;2023-04-12T07:57:24;93542.31;;;8.77;56.32
77041;BME280;65974;42.664;23.264;2023-04-12T07:59:51;93546.56;;;8.57;56.23
77041;BME280;65974;42.664;23.264;2023-04-12T08:02:17;93528.97;;;8.91;55.22
77041;BME280;65974;42.664;23.264;2023-04-12T08:04:52;93524.72;;;9.04;54.83
77041;BME280;65974;42.664;23.264;2023-04-12T08:07:18;93525.25;;;8.75;56.46
77041;BME280;65974;42.664;23.264;2023-04-12T08:09:45;93513.28;;;9.07;51.60
77041;BME280;65974;42.664;23.264;2023-04-12T08:12:11;93526.03;;;9.33;48.77
77041;BME280;65974;42.664;23.264;2023-04-12T08:14:36;93523.06;;;8.52;50.47
77041;BME280;65974;42.664;23.264;2023-04-12T08:17:02;93522.34;;;8.51;51.77
77041;BME280;65974;42.664;23.264;2023-04-12T08:19:27;93524.72;;;9.04;49.41
77041;BME280;65974;42.664;23.264;2023-04-12T08:21:53;93515.06;;;8.66;50.31
77041;BME280;65974;42.664;23.264;2023-04-12T08:24:18;93516.19;;;8.69;51.77
77041;BME280;65974;42.664;23.264;2023-04-12T08:26:44;93512.03;;;9.26;49.96
77041;BME280;65974;42.664;23.264;2023-04-12T08:29:11;93524.13;;;9.34;48.57
77041;BME280;65974;42.664;23.264;2023-04-12T08:31:37;93522.06;;;9.04;49.63
77041;BME280;65974;42.664;23.264;2023-04-12T08:34:03;93518.78;;;9.41;49.09
77041;BME280;65974;42.664;23.264;2023-04-12T08:36:29;93519.22;;;9.77;48.33
77041;BME280;65974;42.664;23.264;2023-04-12T08:38:58;93515.72;;;9.43;49.20
77041;BME280;65974;42.664;23.264;2023-04-12T08:41:24;93518.03;;;9.81;48.69
77041;BME280;65974;42.664;23.264;2023-04-12T08:43:50;93510.44;;;10.21;47.92
77041;BME280;65974;42.664;23.264;2023-04-12T08:46:17;93518.47;;;9.76;48.36
77041;BME280;65974;42.664;23.264;2023-04-12T08:48:47;93517.78;;;9.69;49.17
77041;BME280;65974;42.664;23.264;2023-04-12T08:51:15;93505.41;;;10.30;45.91
77041;BME280;65974;42.664;23.264;2023-04-12T08:53:41;93505.41;;;9.89;46.22
77041;BME280;65974;42.664;23.264;2023-04-12T08:56:11;93501.13;;;9.61;47.13
77041;BME280;65974;42.664;23.264;2023-04-12T08:58:41;93507.34;;;10.26;45.90
77041;BME280;65974;42.664;23.264;2023-04-12T09:01:14;93510.28;;;9.97;46.53
77041;BME280;65974;42.664;23.264;2023-04-12T09:03:41;93507.09;;;9.72;48.16
77041;BME280;65974;42.664;23.264;2023-04-12T09:06:07;93501.16;;;10.36;45.95
77041;BME280;65974;42.664;23.264;2023-04-12T09:08:34;93508.34;;;10.39;45.29
77041;BME280;65974;42.664;23.264;2023-04-12T09:11:01;93504.41;;;10.17;45.56
77041;BME280;65974;42.664;23.264;2023-04-12T09:13:33;93495.41;;;10.41;45.00
77041;BME280;65974;42.664;23.264;2023-04-12T09:16:01;93501.72;;;10.50;44.29
77041;BME280;65974;42.664;23.264;2023-04-12T09:18:29;93495.31;;;10.14;45.14
77041;BME280;65974;42.664;23.264;2023-04-12T09:21:08;93497.47;;;10.56;44.63
77041;BME280;65974;42.664;23.264;2023-04-12T09:23:36;93491.06;;;10.80;42.89
77041;BME280;65974;42.664;23.264;2023-04-12T09:26:02;93478.75;;;10.33;44.01
77041;BME280;65974;42.664;23.264;2023-04-12T09:28:28;93491.41;;;10.56;44.69
77041;BME280;65974;42.664;23.264;2023-04-12T09:30:57;93483.09;;;11.07;43.16
77041;BME280;65974;42.664;23.264;2023-04-12T09:33:32;93486.00;;;10.89;42.61
77041;BME280;65974;42.664;23.264;2023-04-12T09:36:02;93474.28;;;11.10;42.39
77041;BME280;65974;42.664;23.264;2023-04-12T09:38:32;93475.16;;;11.53;40.54
77041;BME280;65974;42.664;23.264;2023-04-12T09:41:15;93467.81;;;10.84;42.42
77041;BME280;65974;42.664;23.264;2023-04-12T09:43:41;93464.16;;;10.75;43.13
77041;BME280;65974;42.664;23.264;2023-04-12T09:46:12;93469.34;;;11.35;41.28
77041;BME280;65974;42.664;23.264;2023-04-12T09:48:38;93457.81;;;10.92;42.28
77041;BME280;65974;42.664;23.264;2023-04-12T09:51:08;93449.50;;;11.13;42.13
77041;BME280;65974;42.664;23.264;2023-04-12T09:53:34;93453.56;;;11.91;41.57
77041;BME280;65974;42.664;23.264;2023-04-12T09:56:02;93446.84;;;11.59;41.76
77041;BME280;65974;42.664;23.264;2023-04-12T09:58:31;93451.72;;;11.64;40.58
77041;BME280;65974;42.664;23.264;2023-04-12T10:01:00;93438.50;;;12.39;36.45
77041;BME280;65974;42.664;23.264;2023-04-12T10:03:27;93434.69;;;12.21;34.39
77041;BME280;65974;42.664;23.264;2023-04-12T10:05:53;93432.31;;;11.64;35.84
77041;BME280;65974;42.664;23.264;2023-04-12T10:08:21;93423.13;;;12.08;32.43
77041;BME280;65974;42.664;23.264;2023-04-12T10:10:47;93435.56;;;11.95;31.01
77041;BME280;65974;42.664;23.264;2023-04-12T10:13:13;93436.38;;;11.49;33.11
77041;BME280;65974;42.664;23.264;2023-04-12T10:15:40;93445.22;;;12.08;33.03
77041;BME280;65974;42.664;23.264;2023-04-12T10:18:06;93417.28;;;12.52;32.86
77041;BME280;65974;42.664;23.264;2023-04-12T10:20:31;93434.63;;;12.05;34.28
77041;BME280;65974;42.664;23.264;2023-04-12T10:22:57;93423.19;;;12.24;34.10
77041;BME280;65974;42.664;23.264;2023-04-12T10:25:27;93425.19;;;12.91;32.64
77041;BME280;65974;42.664;23.264;2023-04-12T10:27:55;93406.19;;;12.70;33.43
77041;BME280;65974;42.664;23.264;2023-04-12T10:30:21;93408.81;;;12.73;33.38
77041;BME280;65974;42.664;23.264;2023-04-12T10:35:30;93389.38;;;12.37;34.43
77041;BME280;65974;42.664;23.264;2023-04-12T10:38:13;93401.81;;;12.43;33.59
77041;BME280;65974;42.664;23.264;2023-04-12T10:41:06;93397.19;;;13.15;32.19
77041;BME280;65974;42.664;23.264;2023-04-12T10:43:32;93406.09;;;12.57;31.23
77041;BME280;65974;42.664;23.264;2023-04-12T10:45:57;93408.97;;;12.66;31.50
77041;BME280;65974;42.664;23.264;2023-04-12T10:48:50;93390.72;;;13.29;31.32
77041;BME280;65974;42.664;23.264;2023-04-12T10:51:23;93406.03;;;13.12;30.65
77041;BME280;65974;42.664;23.264;2023-04-12T10:59:08;93386.88;;;12.98;30.07
77041;BME280;65974;42.664;23.264;2023-04-12T11:01:35;93413.53;;;12.66;30.24
77041;BME280;65974;42.664;23.264;2023-04-12T11:06:58;93417.38;;;13.16;27.37
77041;BME280;65974;42.664;23.264;2023-04-12T11:12:18;93397.19;;;13.15;27.36
77041;BME280;65974;42.664;23.264;2023-04-12T11:14:48;93397.00;;;13.22;26.33
77041;BME280;65974;42.664;23.264;2023-04-12T11:22:17;93403.56;;;13.50;25.43
77041;BME280;65974;42.664;23.264;2023-04-12T11:24:51;93393.84;;;13.11;26.79
77041;BME280;65974;42.664;23.264;2023-04-12T11:27:19;93391.28;;;13.53;26.48
77041;BME280;65974;42.664;23.264;2023-04-12T11:29:47;93391.09;;;13.88;25.93
77041;BME280;65974;42.664;23.264;2023-04-12T11:32:14;93388.66;;;13.04;26.07
77041;BME280;65974;42.664;23.264;2023-04-12T11:34:41;93404.19;;;13.26;26.80
77041;BME280;65974;42.664;23.264;2023-04-12T11:37:08;93386.25;;;14.12;24.25
77041;BME280;65974;42.664;23.264;2023-04-12T11:39:35;93401.00;;;13.47;24.42
77041;BME280;65974;42.664;23.264;2023-04-12T11:42:01;93408.09;;;13.21;25.33
77041;BME280;65974;42.664;23.264;2023-04-12T11:44:28;93404.44;;;13.76;24.56
77041;BME280;65974;42.664;23.264;2023-04-12T11:46:53;93400.44;;;13.68;25.74
77041;BME280;65974;42.664;23.264;2023-04-12T11:49:21;93408.00;;;13.24;25.36
77041;BME280;65974;42.664;23.264;2023-04-12T11:51:47;93400.88;;;13.50;25.42
77041;BME280;65974;42.664;23.264;2023-04-12T11:54:13;93396.00;;;14.06;24.00
77041;BME280;65974;42.664;23.264;2023-04-12T11:56:39;93395.47;;;13.54;25.62
77041;BME280;65974;42.664;23.264;2023-04-12T11:59:05;93401.69;;;13.79;25.80
77041;BME280;65974;42.664;23.264;2023-04-12T12:01:31;93400.41;;;14.41;24.87
77041;BME280;65974;42.664;23.264;2023-04-12T12:03:58;93388.03;;;13.90;26.36
77041;BME280;65974;42.664;23.264;2023-04-12T12:06:25;93400.63;;;13.61;26.65
77041;BME280;65974;42.664;23.264;2023-04-12T12:08:52;93398.88;;;14.40;26.25
77041;BME280;65974;42.664;23.264;2023-04-12T12:11:19;93399.25;;;14.14;26.30
77041;BME280;65974;42.664;23.264;2023-04-12T12:13:47;93399.31;;;13.53;27.74
77041;BME280;65974;42.664;23.264;2023-04-12T12:16:13;93383.06;;;14.17;26.86
77041;BME280;65974;42.664;23.264;2023-04-12T12:18:47;93370.38;;;14.34;26.11
77041;BME280;65974;42.664;23.264;2023-04-12T12:21:13;93388.34;;;13.92;27.03
77041;BME280;65974;42.664;23.264;2023-04-12T12:23:44;93383.72;;;14.21;26.61
77041;BME280;65974;42.664;23.264;2023-04-12T12:26:27;93390.66;;;14.47;26.56
77041;BME280;65974;42.664;23.264;2023-04-12T12:28:56;93386.25;;;14.12;27.82
77041;BME280;65974;42.664;23.264;2023-04-12T12:31:24;93393.47;;;14.82;26.97
77041;BME280;65974;42.664;23.264;2023-04-12T12:33:57;93379.03;;;15.51;24.89
77041;BME280;65974;42.664;23.264;2023-04-12T12:36:34;93387.09;;;14.38;24.47
77041;BME280;65974;42.664;23.264;2023-04-12T12:39:08;93373.19;;;14.81;26.39
77041;BME280;65974;42.664;23.264;2023-04-12T12:41:37;93387.16;;;15.60;25.79
77041;BME280;65974;42.664;23.264;2023-04-12T12:44:03;93372.66;;;14.60;26.65
77041;BME280;65974;42.664;23.264;2023-04-12T12:46:29;93382.00;;;14.68;25.66
77041;BME280;65974;42.664;23.264;2023-04-12T12:48:55;93398.19;;;15.75;23.44
77041;BME280;65974;42.664;23.264;2023-04-12T12:51:20;93380.22;;;15.25;23.84
77041;BME280;65974;42.664;23.264;2023-04-12T12:53:46;93385.88;;;14.93;25.05
77041;BME280;65974;42.664;23.264;2023-04-12T12:56:12;93390.88;;;15.75;24.41
77041;BME280;65974;42.664;23.264;2023-04-12T12:58:41;93381.09;;;15.81;24.34
77041;BME280;65974;42.664;23.264;2023-04-12T13:01:07;93390.78;;;15.66;25.50
77041;BME280;65974;42.664;23.264;2023-04-12T13:03:34;93396.84;;;16.13;24.23
77041;BME280;65974;42.664;23.264;2023-04-12T13:05:59;93389.41;;;16.39;24.33
77041;BME280;65974;42.664;23.264;2023-04-12T13:08:26;93392.75;;;15.87;24.84
77041;BME280;65974;42.664;23.264;2023-04-12T13:10:53;93394.84;;;16.05;25.17
77041;BME280;65974;42.664;23.264;2023-04-12T13:13:20;93388.06;;;16.65;23.36
77041;BME280;65974;42.664;23.264;2023-04-12T13:15:45;93386.47;;;16.03;24.32
77041;BME280;65974;42.664;23.264;2023-04-12T13:18:12;93384.78;;;16.18;25.38
77041;BME280;65974;42.664;23.264;2023-04-12T13:20:40;93379.41;;;17.01;24.08
77041;BME280;65974;42.664;23.264;2023-04-12T13:23:06;93393.19;;;15.39;25.81
77041;BME280;65974;42.664;23.264;2023-04-12T13:25:32;93403.16;;;14.38;27.22
77041;BME280;65974;42.664;23.264;2023-04-12T13:27:57;93416.00;;;14.97;26.95